createdAt,value
2022-08-27T00:04:19.306Z,25.70
2022-08-27T00:09:26.813Z,25.70
2022-08-27T00:14:32.065Z,25.70
2022-08-27T00:19:36.815Z,25.70
2022-08-27T00:24:48.571Z,25.70
2022-08-27T00:29:53.660Z,25.70
2022-08-27T00:34:56.726Z,25.70
2022-08-27T00:39:59.857Z,25.70
2022-08-27T00:45:05.392Z,25.70
2022-08-27T00:50:12.524Z,25.70
2022-08-27T00:55:19.049Z,25.70
2022-08-27T01:00:23.639Z,25.70
2022-08-27T01:05:28.298Z,25.70
2022-08-27T01:10:32.543Z,25.70
2022-08-27T01:15:37.340Z,25.70
2022-08-27T01:20:49.578Z,25.70
2022-08-27T01:25:54.465Z,25.60
2022-08-27T01:30:57.579Z,25.60
2022-08-27T01:36:00.942Z,25.70
2022-08-27T01:41:05.395Z,25.60
2022-08-27T01:46:08.610Z,25.60
2022-08-27T01:51:11.643Z,25.60
2022-08-27T01:56:16.160Z,25.60
2022-08-27T02:01:19.786Z,25.60
2022-08-27T02:06:22.928Z,25.60
2022-08-27T02:11:27.366Z,25.60
2022-08-27T02:16:31.843Z,25.60
2022-08-27T02:21:36.451Z,25.50
2022-08-27T02:26:41.594Z,25.60
2022-08-27T02:31:45.265Z,25.60
2022-08-27T02:36:48.487Z,25.60
2022-08-27T02:41:52.942Z,25.60
2022-08-27T02:46:56.000Z,25.60
2022-08-27T02:51:59.465Z,25.60
2022-08-27T02:57:04.035Z,25.60
2022-08-27T03:02:07.199Z,25.60
2022-08-27T03:07:18.564Z,25.60
2022-08-27T03:12:24.892Z,25.60
2022-08-27T03:17:45.630Z,25.60
2022-08-27T03:22:48.769Z,25.50
2022-08-27T03:27:53.284Z,25.50
2022-08-27T03:32:56.447Z,25.50
2022-08-27T03:37:59.450Z,25.50
2022-08-27T03:43:04.244Z,25.50
2022-08-27T03:48:07.394Z,25.50
2022-08-27T03:53:11.529Z,25.50
2022-08-27T03:58:17.975Z,25.50
2022-08-27T04:03:21.187Z,25.50
2022-08-27T04:08:25.198Z,25.50
2022-08-27T04:13:29.632Z,25.50
2022-08-27T04:18:32.672Z,25.50
2022-08-27T04:23:35.711Z,25.50
2022-08-27T04:28:40.191Z,25.50
2022-08-27T04:33:43.503Z,25.50
2022-08-27T04:38:54.168Z,25.40
2022-08-27T04:44:03.094Z,25.40
2022-08-27T04:49:10.226Z,25.40
2022-08-27T04:54:13.679Z,25.40
2022-08-27T04:59:18.263Z,25.40
2022-08-27T05:04:21.311Z,25.40
2022-08-27T05:09:26.479Z,25.40
2022-08-27T05:14:32.711Z,25.40
2022-08-27T05:19:35.735Z,25.40
2022-08-27T05:24:38.850Z,25.40
2022-08-27T05:29:43.279Z,25.40
2022-08-27T05:34:46.367Z,25.40
2022-08-27T05:39:49.479Z,25.40
2022-08-27T05:44:54.099Z,25.40
2022-08-27T05:49:57.136Z,25.40
2022-08-27T05:55:00.310Z,25.40
2022-08-27T06:00:23.337Z,25.40
2022-08-27T06:05:26.620Z,25.40
2022-08-27T06:10:30.346Z,25.30
2022-08-27T06:15:34.795Z,25.20
2022-08-27T06:20:37.838Z,25.10
2022-08-27T06:25:43.794Z,24.90
2022-08-27T06:30:48.250Z,24.80
2022-08-27T06:35:51.286Z,24.60
2022-08-27T06:40:54.351Z,24.60
2022-08-27T06:45:58.844Z,24.50
2022-08-27T06:51:02.003Z,24.40
2022-08-27T06:56:06.214Z,24.40
2022-08-27T07:01:15.743Z,24.30
2022-08-27T07:06:19.135Z,24.30
2022-08-27T07:11:22.243Z,24.30
2022-08-27T07:16:28.598Z,24.20
2022-08-27T07:21:31.753Z,24.00
2022-08-27T07:26:36.582Z,23.90
2022-08-27T07:31:40.967Z,23.80
2022-08-27T07:36:43.991Z,23.80
2022-08-27T07:42:04.639Z,23.80
2022-08-27T07:47:09.200Z,23.80
2022-08-27T07:52:13.190Z,23.80
2022-08-27T07:57:16.224Z,23.80
2022-08-27T08:02:21.172Z,23.90
2022-08-27T08:07:25.112Z,23.90
2022-08-27T08:12:28.530Z,23.90
2022-08-27T08:17:34.253Z,24.00
2022-08-27T08:22:37.451Z,24.00
2022-08-27T08:27:40.820Z,24.00
2022-08-27T08:32:45.276Z,24.10
2022-08-27T08:37:48.352Z,24.10
2022-08-27T08:42:55.792Z,24.20
2022-08-27T08:48:05.974Z,24.20
2022-08-27T08:53:19.981Z,24.30
2022-08-27T08:58:31.707Z,24.40
2022-08-27T09:03:40.784Z,24.40
2022-08-27T09:08:45.232Z,24.40
2022-08-27T09:13:54.380Z,24.40
2022-08-27T09:18:59.299Z,24.50
2022-08-27T09:24:08.627Z,24.60
2022-08-27T09:29:17.299Z,24.60
2022-08-27T09:34:22.078Z,24.60
2022-08-27T09:39:33.203Z,24.70
2022-08-27T09:44:51.549Z,24.70
2022-08-27T09:50:10.005Z,24.70
2022-08-27T09:55:14.315Z,24.70
2022-08-27T10:00:18.974Z,24.70
2022-08-27T10:05:29.686Z,24.80
2022-08-27T10:10:45.081Z,24.80
2022-08-27T10:16:03.664Z,24.90
2022-08-27T10:21:16.722Z,24.90
2022-08-27T10:26:25.448Z,25.00
2022-08-27T10:31:36.286Z,25.00
2022-08-27T10:36:50.020Z,25.10
2022-08-27T10:42:05.965Z,25.10
2022-08-27T10:47:20.175Z,25.10
2022-08-27T10:52:33.431Z,25.10
2022-08-27T10:58:06.336Z,25.10
2022-08-27T11:03:14.069Z,25.20
2022-08-27T11:08:24.030Z,25.20
2022-08-27T11:13:34.477Z,25.20
2022-08-27T11:18:43.666Z,25.20
2022-08-27T11:23:54.041Z,25.20
2022-08-27T11:29:01.160Z,25.30
2022-08-27T11:34:10.438Z,25.40
2022-08-27T11:39:27.900Z,25.40
2022-08-27T11:44:31.412Z,25.40
2022-08-27T11:49:43.899Z,25.50
2022-08-27T11:54:52.831Z,25.50
2022-08-27T11:59:55.927Z,25.50
2022-08-27T12:05:09.592Z,25.60
2022-08-27T12:10:36.629Z,25.60
2022-08-27T12:15:57.150Z,25.60
2022-08-27T12:21:11.311Z,25.60
2022-08-27T12:26:33.346Z,25.60
2022-08-27T12:31:38.286Z,25.70
2022-08-27T12:36:41.559Z,25.70
2022-08-27T12:41:49.234Z,25.60
2022-08-27T12:46:56.246Z,25.60
2022-08-27T12:52:08.024Z,25.70
2022-08-27T12:57:21.574Z,25.70
2022-08-27T13:02:55.115Z,25.70
2022-08-27T13:07:58.917Z,25.70
2022-08-27T13:13:06.931Z,25.70
2022-08-27T13:18:11.964Z,25.70
2022-08-27T13:23:20.293Z,25.70
2022-08-27T13:28:29.007Z,25.80
2022-08-27T13:33:34.914Z,25.80
2022-08-27T13:38:41.123Z,25.80
2022-08-27T13:43:48.259Z,25.80
2022-08-27T13:48:54.911Z,25.80
2022-08-27T13:54:14.287Z,25.80
2022-08-27T13:59:26.562Z,25.80
2022-08-27T14:04:38.495Z,25.80
2022-08-27T14:09:54.144Z,25.80
2022-08-27T14:15:00.399Z,25.90
2022-08-27T14:20:05.327Z,25.80
2022-08-27T14:25:10.283Z,25.80
2022-08-27T14:30:18.048Z,25.90
2022-08-27T14:35:24.935Z,25.80
2022-08-27T14:40:28.541Z,25.90
2022-08-27T14:45:33.274Z,25.80
2022-08-27T14:50:36.394Z,25.90
2022-08-27T14:55:39.766Z,25.90
2022-08-27T15:00:44.289Z,25.80
2022-08-27T15:05:47.312Z,25.80
2022-08-27T15:10:51.358Z,25.80
2022-08-27T15:15:55.779Z,25.80
2022-08-27T15:20:59.026Z,25.80
2022-08-27T15:26:02.065Z,25.80
2022-08-27T15:31:06.753Z,25.70
2022-08-27T15:36:09.971Z,25.70
2022-08-27T15:41:13.200Z,25.70
2022-08-27T15:46:17.779Z,25.70
2022-08-27T15:51:27.245Z,25.70
2022-08-27T15:56:34.430Z,25.70
2022-08-27T16:01:39.838Z,25.70
2022-08-27T16:06:43.013Z,25.60
2022-08-27T16:11:46.331Z,25.60
2022-08-27T16:16:51.726Z,25.60
2022-08-27T16:21:54.774Z,25.60
2022-08-27T16:26:57.817Z,25.60
2022-08-27T16:32:02.237Z,25.60
2022-08-27T16:37:05.595Z,25.60
2022-08-27T16:42:10.700Z,25.60
2022-08-27T16:47:15.158Z,25.60
2022-08-27T16:52:19.659Z,25.50
2022-08-27T16:57:22.666Z,25.50
2022-08-27T17:02:32.117Z,25.40
2022-08-27T17:07:35.419Z,25.40
2022-08-27T17:12:38.558Z,25.40
2022-08-27T17:17:43.295Z,25.30
2022-08-27T17:22:46.335Z,25.40
2022-08-27T17:27:49.354Z,25.30
2022-08-27T17:32:54.742Z,25.30
2022-08-27T17:37:58.086Z,25.20
2022-08-27T17:43:01.119Z,25.10
2022-08-27T17:48:11.220Z,25.10
2022-08-27T17:53:17.619Z,25.00
2022-08-27T17:58:21.300Z,24.90
2022-08-27T18:03:25.870Z,24.90
2022-08-27T18:08:28.966Z,24.90
2022-08-27T18:13:33.279Z,24.80
2022-08-27T18:18:38.510Z,24.80
2022-08-27T18:23:44.388Z,24.70
2022-08-27T18:28:48.479Z,24.60
2022-08-27T18:33:52.879Z,24.60
2022-08-27T18:38:55.946Z,24.60
2022-08-27T18:43:59.927Z,24.60
2022-08-27T18:49:04.370Z,24.50
2022-08-27T18:54:07.540Z,24.50
2022-08-27T18:59:11.222Z,24.50
2022-08-27T19:04:16.515Z,24.50
2022-08-27T19:09:21.003Z,24.50
2022-08-27T19:14:24.059Z,24.50
2022-08-27T19:19:28.556Z,24.50
2022-08-27T19:24:31.719Z,24.40
2022-08-27T19:29:39.867Z,24.30
2022-08-27T19:34:44.300Z,24.20
2022-08-27T19:39:47.364Z,24.20
2022-08-27T19:44:50.527Z,24.00
2022-08-27T19:49:56.317Z,24.00
2022-08-27T19:55:14.995Z,24.00
2022-08-27T20:00:20.404Z,24.00
2022-08-27T20:05:24.851Z,24.00
2022-08-27T20:10:36.164Z,23.90
2022-08-27T20:15:40.702Z,23.80
2022-08-27T20:20:45.439Z,23.80
2022-08-27T20:25:48.778Z,23.80
2022-08-27T20:30:52.008Z,23.70
2022-08-27T20:35:56.866Z,23.70
2022-08-27T20:40:59.898Z,23.50
2022-08-27T20:46:03.581Z,23.50
2022-08-27T20:51:09.003Z,23.50
2022-08-27T20:56:12.074Z,23.50
2022-08-27T21:01:15.214Z,23.40
2022-08-27T21:06:23.860Z,23.30
2022-08-27T21:11:29.357Z,23.30
2022-08-27T21:16:32.475Z,23.50
2022-08-27T21:21:36.972Z,23.60
2022-08-27T21:26:40.026Z,23.70
2022-08-27T21:31:43.144Z,23.70
2022-08-27T21:36:47.566Z,23.80
2022-08-27T21:41:50.892Z,23.90
2022-08-27T21:46:54.008Z,24.00
2022-08-27T21:51:58.470Z,24.00
2022-08-27T21:57:04.100Z,24.00
2022-08-27T22:02:23.048Z,24.00
2022-08-27T22:07:31.818Z,24.10
2022-08-27T22:12:35.095Z,24.10
2022-08-27T22:17:38.230Z,24.10
2022-08-27T22:22:43.359Z,24.10
2022-08-27T22:27:46.667Z,24.20
2022-08-27T22:32:49.829Z,24.20
2022-08-27T22:37:54.273Z,24.20
2022-08-27T22:42:57.750Z,24.20
2022-08-27T22:48:00.784Z,24.20
2022-08-27T22:53:05.407Z,24.20
2022-08-27T22:58:08.554Z,24.20
2022-08-27T23:03:12.685Z,24.20
2022-08-27T23:08:17.105Z,24.20
2022-08-27T23:13:21.727Z,24.20
2022-08-27T23:18:25.139Z,24.20
2022-08-27T23:23:30.715Z,24.20
2022-08-27T23:28:34.126Z,24.20
2022-08-27T23:33:37.926Z,24.20
2022-08-27T23:38:42.358Z,24.20
2022-08-27T23:43:45.746Z,24.20
2022-08-27T23:48:48.780Z,24.20
2022-08-27T23:53:53.171Z,24.20
2022-08-27T23:58:56.399Z,24.20
